createdAt,value
2022-08-11T00:00:17.391Z,0.00
2022-08-11T00:01:17.379Z,0.00
2022-08-11T00:02:17.350Z,0.00
2022-08-11T00:03:17.445Z,0.00
2022-08-11T00:04:17.350Z,0.00
2022-08-11T00:05:17.295Z,0.00
2022-08-11T00:06:17.295Z,0.00
2022-08-11T00:07:17.252Z,0.00
2022-08-11T00:08:17.235Z,0.00
2022-08-11T00:09:17.216Z,0.00
2022-08-11T00:10:17.193Z,0.00
2022-08-11T00:11:17.182Z,0.00
2022-08-11T00:12:17.189Z,0.00
2022-08-11T00:13:17.144Z,0.00
2022-08-11T00:14:17.138Z,0.00
2022-08-11T00:15:17.097Z,0.00
2022-08-11T00:16:17.074Z,0.00
2022-08-11T00:17:17.055Z,0.00
2022-08-11T00:18:17.046Z,0.00
2022-08-11T00:19:17.058Z,0.00
2022-08-11T00:20:17.342Z,0.00
2022-08-11T00:21:16.978Z,0.00
2022-08-11T00:22:16.974Z,0.00
2022-08-11T00:23:17.427Z,0.00
2022-08-11T00:24:16.933Z,0.00
2022-08-11T00:25:16.908Z,0.00
2022-08-11T00:26:16.986Z,0.00
2022-08-11T00:27:16.854Z,0.00
2022-08-11T00:28:16.840Z,0.00
2022-08-11T00:29:16.823Z,0.00
2022-08-11T00:30:16.809Z,0.00
2022-08-11T00:31:16.776Z,0.00
2022-08-11T00:32:16.775Z,0.00
2022-08-11T00:33:16.739Z,0.00
2022-08-11T00:34:16.731Z,0.00
2022-08-11T00:35:55.652Z,0.00
2022-08-11T00:36:18.202Z,0.00
2022-08-11T00:37:16.653Z,0.00
2022-08-11T00:38:16.630Z,0.00
2022-08-11T00:39:16.673Z,0.00
2022-08-11T00:40:16.594Z,0.00
2022-08-11T00:41:16.576Z,0.00
2022-08-11T00:42:16.561Z,0.00
2022-08-11T00:43:20.188Z,0.00
2022-08-11T00:44:16.527Z,0.00
2022-08-11T00:45:16.502Z,0.00
2022-08-11T00:46:16.475Z,0.00
2022-08-11T00:47:16.481Z,0.00
2022-08-11T00:48:16.452Z,0.00
2022-08-11T00:49:16.417Z,0.00
2022-08-11T00:50:16.391Z,0.00
2022-08-11T00:51:16.384Z,0.00
2022-08-11T00:52:16.383Z,0.00
2022-08-11T00:53:16.341Z,0.00
2022-08-11T00:54:16.318Z,0.00
2022-08-11T00:55:16.295Z,0.00
2022-08-11T00:56:16.295Z,0.00
2022-08-11T00:57:37.764Z,0.00
2022-08-11T00:58:21.739Z,0.00
2022-08-11T00:59:34.230Z,0.00
2022-08-11T01:00:16.205Z,0.00
2022-08-11T01:01:16.279Z,0.00
2022-08-11T01:02:16.154Z,0.00
2022-08-11T01:03:16.149Z,0.00
2022-08-11T01:04:16.145Z,0.00
2022-08-11T01:05:16.100Z,0.00
2022-08-11T01:06:16.073Z,0.00
2022-08-11T01:07:16.060Z,0.00
2022-08-11T01:08:16.040Z,0.00
2022-08-11T01:09:17.906Z,0.00
2022-08-11T01:10:15.998Z,0.00
2022-08-11T01:11:15.979Z,0.00
2022-08-11T01:12:15.965Z,0.00
2022-08-11T01:13:15.943Z,0.00
2022-08-11T01:14:15.915Z,0.00
2022-08-11T01:15:15.907Z,0.00
2022-08-11T01:16:15.881Z,0.00
2022-08-11T01:17:15.866Z,0.00
2022-08-11T01:18:15.836Z,0.00
2022-08-11T01:19:15.842Z,0.00
2022-08-11T01:20:48.072Z,0.00
2022-08-11T01:21:15.777Z,0.00
2022-08-11T01:22:15.755Z,0.00
2022-08-11T01:23:15.784Z,0.00
2022-08-11T01:24:15.720Z,0.00
2022-08-11T01:25:15.700Z,0.00
2022-08-11T01:26:15.680Z,0.00
2022-08-11T01:27:18.843Z,0.00
2022-08-11T01:28:15.640Z,0.00
2022-08-11T01:29:15.780Z,0.00
2022-08-11T01:30:15.624Z,0.00
2022-08-11T01:31:15.576Z,0.00
2022-08-11T01:32:15.574Z,0.00
2022-08-11T01:33:15.596Z,0.00
2022-08-11T01:34:15.514Z,0.00
2022-08-11T01:35:15.490Z,0.00
2022-08-11T01:36:15.479Z,0.00
2022-08-11T01:37:15.452Z,0.00
2022-08-11T01:38:15.434Z,0.00
2022-08-11T01:39:18.427Z,0.00
2022-08-11T01:40:15.406Z,0.00
2022-08-11T01:41:15.376Z,0.00
2022-08-11T01:42:15.354Z,0.00
2022-08-11T01:43:15.380Z,0.00
2022-08-11T01:44:15.311Z,0.00
2022-08-11T01:45:15.292Z,0.00
2022-08-11T01:46:15.275Z,0.00
2022-08-11T01:47:15.252Z,0.00
2022-08-11T01:48:15.228Z,0.00
2022-08-11T01:50:05.804Z,0.00
2022-08-11T01:50:15.187Z,0.00
2022-08-11T01:51:17.056Z,0.00
2022-08-11T01:52:15.144Z,0.00
2022-08-11T01:53:15.143Z,0.00
2022-08-11T01:54:15.105Z,0.00
2022-08-11T01:55:15.111Z,0.00
2022-08-11T01:56:15.069Z,0.00
2022-08-11T01:57:15.042Z,0.00
2022-08-11T01:58:15.031Z,0.00
2022-08-11T01:59:15.074Z,0.00
2022-08-11T02:00:14.989Z,0.00
2022-08-11T02:01:15.040Z,0.00
2022-08-11T02:02:16.717Z,0.00
2022-08-11T02:03:14.948Z,0.00
2022-08-11T02:04:14.912Z,0.00
2022-08-11T02:05:14.883Z,0.00
2022-08-11T02:06:14.865Z,0.00
2022-08-11T02:07:14.845Z,0.00
2022-08-11T02:08:14.832Z,0.00
2022-08-11T02:09:14.808Z,0.00
2022-08-11T02:10:14.794Z,0.00
2022-08-11T02:11:14.774Z,0.00
2022-08-11T02:12:14.752Z,0.00
2022-08-11T02:13:14.756Z,0.00
2022-08-11T02:14:14.707Z,0.00
2022-08-11T02:15:14.684Z,0.00
2022-08-11T02:16:14.667Z,0.00
2022-08-11T02:17:14.640Z,0.00
2022-08-11T02:18:14.639Z,0.00
2022-08-11T02:19:14.604Z,0.00
2022-08-11T02:20:14.583Z,0.00
2022-08-11T02:21:14.561Z,0.00
2022-08-11T02:22:14.550Z,0.00
2022-08-11T02:23:14.527Z,0.00
2022-08-11T02:24:14.511Z,0.00
2022-08-11T02:25:17.725Z,0.00
2022-08-11T02:26:14.461Z,0.00
2022-08-11T02:27:14.453Z,0.00
2022-08-11T02:28:14.426Z,0.00
2022-08-11T02:29:14.406Z,0.00
2022-08-11T02:30:14.385Z,0.00
2022-08-11T02:32:04.803Z,0.00
2022-08-11T02:32:28.644Z,0.00
2022-08-11T02:33:14.341Z,0.00
2022-08-11T02:34:14.306Z,0.00
2022-08-11T02:35:14.288Z,0.00
2022-08-11T02:36:14.271Z,0.00
2022-08-11T02:37:14.266Z,0.00
2022-08-11T02:38:14.227Z,0.00
2022-08-11T02:39:14.252Z,0.00
2022-08-11T02:40:14.190Z,0.00
2022-08-11T02:41:14.181Z,0.00
2022-08-11T02:42:32.488Z,0.00
2022-08-11T02:43:14.136Z,0.00
2022-08-11T02:44:14.116Z,0.00
2022-08-11T02:45:14.126Z,0.00
2022-08-11T02:46:18.037Z,0.00
2022-08-11T02:47:14.059Z,0.00
2022-08-11T02:48:14.061Z,0.00
2022-08-11T02:49:14.043Z,0.00
2022-08-11T02:50:13.988Z,0.00
2022-08-11T02:51:13.974Z,0.00
2022-08-11T02:52:13.956Z,0.00
2022-08-11T02:53:13.954Z,0.00
2022-08-11T02:54:13.912Z,0.00
2022-08-11T02:55:56.797Z,0.00
2022-08-11T02:56:13.872Z,0.00
2022-08-11T02:57:13.869Z,0.00
2022-08-11T02:58:13.833Z,0.00
2022-08-11T02:59:13.815Z,0.00
2022-08-11T03:00:13.792Z,0.00
2022-08-11T03:01:13.810Z,0.00
2022-08-11T03:02:13.842Z,0.00
2022-08-11T03:03:13.736Z,0.00
2022-08-11T03:04:13.717Z,0.00
2022-08-11T03:05:13.698Z,0.00
2022-08-11T03:06:13.678Z,0.00
2022-08-11T03:07:29.159Z,0.00
2022-08-11T03:08:13.638Z,0.00
2022-08-11T03:09:13.619Z,0.00
2022-08-11T03:10:13.600Z,0.00
2022-08-11T03:11:13.580Z,0.00
2022-08-11T03:12:13.571Z,0.00
2022-08-11T03:13:14.223Z,0.00
2022-08-11T03:14:13.524Z,0.00
2022-08-11T03:15:13.501Z,0.00
2022-08-11T03:16:13.514Z,0.00
2022-08-11T03:17:13.491Z,0.00
2022-08-11T03:18:13.441Z,0.00
2022-08-11T03:19:13.421Z,0.00
2022-08-11T03:20:13.416Z,0.00
2022-08-11T03:21:13.383Z,0.00
2022-08-11T03:22:13.369Z,0.00
2022-08-11T03:23:19.694Z,0.00
2022-08-11T03:24:13.325Z,0.00
2022-08-11T03:25:13.309Z,0.00
2022-08-11T03:26:13.290Z,0.00
2022-08-11T03:27:13.277Z,0.00
2022-08-11T03:28:13.255Z,0.00
2022-08-11T03:29:13.231Z,0.00
2022-08-11T03:30:13.219Z,0.00
2022-08-11T03:31:13.196Z,0.00
2022-08-11T03:32:13.178Z,0.00
2022-08-11T03:33:13.160Z,0.00
2022-08-11T03:34:13.156Z,0.00
2022-08-11T03:35:21.379Z,0.00
2022-08-11T03:36:13.095Z,0.00
2022-08-11T03:37:17.291Z,0.00
2022-08-11T03:38:13.075Z,0.00
2022-08-11T03:39:13.073Z,0.00
2022-08-11T03:40:13.023Z,0.00
2022-08-11T03:42:01.913Z,0.00
2022-08-11T03:42:12.984Z,0.00
2022-08-11T03:43:12.964Z,0.00
2022-08-11T03:44:12.945Z,0.00
2022-08-11T03:45:12.923Z,0.00
2022-08-11T03:46:12.897Z,0.00
2022-08-11T03:47:12.877Z,0.00
2022-08-11T03:48:12.870Z,0.00
2022-08-11T03:49:12.863Z,0.00
2022-08-11T03:50:12.826Z,0.00
2022-08-11T03:51:12.800Z,0.00
2022-08-11T03:52:12.793Z,0.00
2022-08-11T03:53:12.762Z,0.00
2022-08-11T03:54:12.748Z,0.00
2022-08-11T03:55:12.720Z,0.00
2022-08-11T03:56:12.707Z,0.00
2022-08-11T03:57:12.683Z,0.00
2022-08-11T03:58:12.672Z,0.00
2022-08-11T03:59:12.652Z,0.00
2022-08-11T04:00:12.642Z,0.00
2022-08-11T04:01:12.645Z,0.00
2022-08-11T04:02:12.588Z,5.63
2022-08-11T04:03:12.571Z,5.63
2022-08-11T04:04:12.548Z,5.63
2022-08-11T04:05:12.527Z,5.63
2022-08-11T04:06:12.509Z,5.63
2022-08-11T04:07:17.535Z,5.63
2022-08-11T04:08:12.488Z,5.63
2022-08-11T04:09:13.287Z,5.63
2022-08-11T04:10:12.444Z,11.25
2022-08-11T04:11:12.455Z,11.25
2022-08-11T04:12:35.233Z,11.25
2022-08-11T04:13:12.405Z,11.25
2022-08-11T04:14:12.354Z,11.25
2022-08-11T04:15:12.330Z,16.88
2022-08-11T04:16:12.926Z,16.88
2022-08-11T04:17:12.299Z,16.88
2022-08-11T04:18:12.278Z,16.88
2022-08-11T04:19:12.263Z,16.88
2022-08-11T04:20:12.239Z,22.50
2022-08-11T04:21:12.220Z,22.50
2022-08-11T04:22:12.200Z,22.50
2022-08-11T04:23:12.180Z,22.50
2022-08-11T04:24:35.125Z,28.13
2022-08-11T04:25:12.136Z,28.13
2022-08-11T04:26:16.224Z,28.13
2022-08-11T04:27:14.281Z,28.13
2022-08-11T04:28:28.421Z,33.75
2022-08-11T04:29:12.059Z,33.75
2022-08-11T04:30:12.430Z,33.75
2022-08-11T04:31:12.017Z,33.75
2022-08-11T04:32:11.992Z,33.75
2022-08-11T04:33:11.965Z,39.38
2022-08-11T04:34:11.961Z,39.38
2022-08-11T04:35:11.963Z,39.38
2022-08-11T04:36:11.912Z,39.38
2022-08-11T04:37:11.935Z,39.38
2022-08-11T04:38:11.884Z,45.00
2022-08-11T04:39:11.916Z,45.00
2022-08-11T04:40:11.833Z,45.00
2022-08-11T04:41:11.812Z,45.00
2022-08-11T04:42:11.793Z,50.63
2022-08-11T04:43:11.772Z,50.63
2022-08-11T04:44:11.753Z,50.63
2022-08-11T04:45:11.746Z,50.63
2022-08-11T04:46:11.725Z,50.63
2022-08-11T04:47:11.683Z,56.25
2022-08-11T04:48:11.667Z,56.25
2022-08-11T04:49:11.645Z,56.25
2022-08-11T04:50:11.636Z,56.25
2022-08-11T04:51:17.105Z,56.25
2022-08-11T04:52:11.584Z,61.88
2022-08-11T04:53:11.593Z,61.88
2022-08-11T04:54:11.543Z,61.88
2022-08-11T04:55:11.526Z,61.88
2022-08-11T04:56:11.517Z,61.88
2022-08-11T04:57:11.489Z,67.50
2022-08-11T04:58:11.461Z,67.50
2022-08-11T04:59:11.439Z,67.50
2022-08-11T05:00:11.415Z,73.13
2022-08-11T05:01:11.453Z,73.13
2022-08-11T05:02:17.340Z,78.75
2022-08-11T05:03:11.372Z,78.75
2022-08-11T05:04:11.340Z,78.75
2022-08-11T05:05:11.311Z,78.75
2022-08-11T05:06:11.297Z,84.38
2022-08-11T05:07:11.276Z,84.38
2022-08-11T05:08:11.260Z,84.38
2022-08-11T05:09:11.231Z,84.38
2022-08-11T05:10:11.216Z,90.00
2022-08-11T05:11:11.196Z,90.00
2022-08-11T05:12:11.175Z,90.00
2022-08-11T05:13:11.154Z,90.00
2022-08-11T05:14:11.123Z,90.00
2022-08-11T05:15:11.097Z,95.63
2022-08-11T05:16:11.090Z,95.63
2022-08-11T05:17:11.060Z,95.63
2022-08-11T05:18:11.069Z,95.63
2022-08-11T05:19:11.038Z,101.25
2022-08-11T05:20:10.995Z,101.25
2022-08-11T05:21:10.988Z,101.25
2022-08-11T05:22:10.975Z,101.25
2022-08-11T05:23:10.949Z,101.25
2022-08-11T05:24:10.913Z,101.25
2022-08-11T05:25:10.897Z,106.88
2022-08-11T05:26:46.773Z,106.88
2022-08-11T05:27:13.789Z,106.88
2022-08-11T05:28:10.835Z,106.88
2022-08-11T05:29:19.982Z,106.88
2022-08-11T05:30:10.787Z,106.88
2022-08-11T05:31:10.771Z,106.88
2022-08-11T05:32:10.750Z,106.88
2022-08-11T05:33:10.749Z,106.88
2022-08-11T05:34:10.715Z,106.88
2022-08-11T05:35:10.697Z,106.88
2022-08-11T05:36:10.671Z,112.50
2022-08-11T05:37:26.070Z,112.50
2022-08-11T05:38:10.657Z,112.50
2022-08-11T05:39:10.636Z,112.50
2022-08-11T05:40:10.643Z,112.50
2022-08-11T05:41:10.567Z,112.50
2022-08-11T05:42:10.547Z,112.50
2022-08-11T05:43:10.523Z,118.13
2022-08-11T05:44:20.395Z,118.13
2022-08-11T05:45:15.371Z,118.13
2022-08-11T05:46:13.215Z,118.13
2022-08-11T05:47:10.444Z,118.13
2022-08-11T05:48:10.420Z,123.75
2022-08-11T05:49:10.399Z,129.38
2022-08-11T05:50:13.645Z,129.38
2022-08-11T05:51:10.689Z,135.00
2022-08-11T05:52:12.921Z,135.00
2022-08-11T05:53:12.133Z,135.00
2022-08-11T05:54:28.378Z,140.63
2022-08-11T05:55:10.279Z,135.00
2022-08-11T05:56:10.256Z,129.38
2022-08-11T05:57:10.283Z,129.38
2022-08-11T05:58:10.228Z,129.38
2022-08-11T05:59:10.197Z,146.25
2022-08-11T06:00:10.211Z,157.50
2022-08-11T06:01:10.182Z,151.88
2022-08-11T06:02:10.176Z,135.00
2022-08-11T06:03:10.120Z,135.00
2022-08-11T06:04:10.115Z,146.25
2022-08-11T06:05:10.129Z,135.00
2022-08-11T06:06:10.056Z,135.00
2022-08-11T06:07:10.040Z,135.00
2022-08-11T06:08:10.017Z,135.00
2022-08-11T06:09:09.995Z,135.00
2022-08-11T06:10:09.993Z,135.00
2022-08-11T06:11:09.953Z,135.00
2022-08-11T06:12:09.947Z,135.00
2022-08-11T06:13:09.917Z,135.00
2022-08-11T06:14:09.939Z,135.00
2022-08-11T06:15:09.888Z,140.63
2022-08-11T06:16:09.874Z,140.63
2022-08-11T06:17:09.845Z,140.63
2022-08-11T06:18:09.824Z,140.63
2022-08-11T06:19:09.809Z,140.63
2022-08-11T06:20:09.807Z,140.63
2022-08-11T06:21:09.789Z,140.63
2022-08-11T06:22:09.756Z,140.63
2022-08-11T06:23:09.724Z,140.63
2022-08-11T06:24:09.725Z,140.63
2022-08-11T06:25:09.686Z,140.63
2022-08-11T06:26:09.680Z,146.25
2022-08-11T06:27:12.776Z,146.25
2022-08-11T06:28:09.653Z,146.25
2022-08-11T06:29:09.618Z,146.25
2022-08-11T06:30:09.594Z,146.25
2022-08-11T06:31:09.584Z,146.25
2022-08-11T06:32:09.568Z,146.25
2022-08-11T06:33:09.548Z,146.25
2022-08-11T06:34:09.529Z,146.25
2022-08-11T06:35:09.503Z,146.25
2022-08-11T06:36:09.487Z,146.25
2022-08-11T06:37:09.466Z,146.25
2022-08-11T06:38:09.450Z,146.25
2022-08-11T06:39:09.468Z,146.25
2022-08-11T06:40:09.437Z,151.88
2022-08-11T06:41:09.431Z,151.88
2022-08-11T06:42:09.384Z,151.88
2022-08-11T06:43:09.362Z,151.88
2022-08-11T06:44:09.353Z,151.88
2022-08-11T06:45:09.319Z,151.88
2022-08-11T06:46:09.303Z,151.88
2022-08-11T06:47:09.284Z,151.88
2022-08-11T06:48:09.271Z,151.88
2022-08-11T06:49:09.258Z,151.88
2022-08-11T06:50:09.234Z,151.88
2022-08-11T06:51:09.230Z,151.88
2022-08-11T06:52:34.496Z,151.88
2022-08-11T06:53:09.190Z,151.88
2022-08-11T06:54:09.173Z,151.88
2022-08-11T06:55:55.581Z,151.88
2022-08-11T06:56:09.141Z,151.88
2022-08-11T06:58:09.097Z,151.88
2022-08-11T06:59:09.082Z,151.88
2022-08-11T07:00:09.065Z,157.50
2022-08-11T07:01:09.111Z,157.50
2022-08-11T07:02:09.044Z,157.50
2022-08-11T07:03:09.019Z,163.13
2022-08-11T07:04:08.999Z,163.13
2022-08-11T07:05:08.979Z,163.13
2022-08-11T07:06:08.963Z,168.75
2022-08-11T07:07:08.972Z,174.38
2022-08-11T07:08:33.614Z,174.38
2022-08-11T07:09:08.917Z,174.38
2022-08-11T07:10:08.899Z,174.38
2022-08-11T07:11:08.883Z,180.00
2022-08-11T07:12:08.872Z,191.25
2022-08-11T07:13:08.850Z,196.88
2022-08-11T07:14:08.908Z,202.50
2022-08-11T07:15:08.831Z,208.13
2022-08-11T07:16:13.276Z,196.88
2022-08-11T07:17:08.793Z,191.25
2022-08-11T07:18:08.780Z,196.88
2022-08-11T07:19:08.771Z,202.50
2022-08-11T07:20:08.770Z,213.75
2022-08-11T07:22:00.393Z,225.00
2022-08-11T07:22:08.737Z,225.00
2022-08-11T07:23:08.705Z,225.00
2022-08-11T07:24:08.686Z,225.00
2022-08-11T07:25:08.689Z,225.00
2022-08-11T07:26:08.667Z,225.00
2022-08-11T07:27:08.653Z,225.00
2022-08-11T07:28:08.637Z,225.00
2022-08-11T07:29:08.620Z,225.00
2022-08-11T07:30:08.625Z,225.00
2022-08-11T07:31:08.594Z,225.00
2022-08-11T07:32:08.578Z,225.00
2022-08-11T07:33:08.565Z,225.00
2022-08-11T07:34:12.226Z,225.00
2022-08-11T07:35:08.545Z,225.00
2022-08-11T07:36:08.529Z,225.00
2022-08-11T07:37:08.514Z,225.00
2022-08-11T07:38:08.500Z,225.00
2022-08-11T07:39:08.523Z,225.00
2022-08-11T07:40:08.488Z,225.00
2022-08-11T07:41:08.490Z,225.00
2022-08-11T07:42:08.449Z,230.63
2022-08-11T07:43:08.450Z,230.63
2022-08-11T07:44:08.432Z,225.00
2022-08-11T07:45:08.415Z,225.00
2022-08-11T07:46:08.414Z,225.00
2022-08-11T07:47:08.394Z,225.00
2022-08-11T07:48:08.384Z,225.00
2022-08-11T07:49:08.374Z,225.00
2022-08-11T07:50:08.357Z,213.75
2022-08-11T07:51:08.352Z,225.00
2022-08-11T07:52:08.345Z,225.00
2022-08-11T07:53:08.329Z,225.00
2022-08-11T07:54:16.410Z,225.00
2022-08-11T07:55:08.599Z,225.00
2022-08-11T07:56:08.305Z,225.00
2022-08-11T07:57:57.012Z,225.00
2022-08-11T07:58:16.698Z,230.63
2022-08-11T07:59:08.513Z,230.63
2022-08-11T08:00:08.258Z,230.63
2022-08-11T08:01:10.224Z,230.63
2022-08-11T08:02:08.272Z,230.63
2022-08-11T08:03:08.230Z,230.63
2022-08-11T08:04:08.203Z,230.63
2022-08-11T08:05:08.228Z,230.63
2022-08-11T08:06:23.262Z,230.63
2022-08-11T08:07:08.175Z,236.25
2022-08-11T08:08:08.183Z,236.25
2022-08-11T08:09:08.162Z,236.25
2022-08-11T08:10:08.147Z,236.25
2022-08-11T08:11:08.128Z,236.25
2022-08-11T08:12:08.129Z,236.25
2022-08-11T08:13:08.110Z,236.25
2022-08-11T08:14:08.099Z,236.25
2022-08-11T08:15:08.089Z,241.88
2022-08-11T08:16:08.076Z,236.25
2022-08-11T08:17:08.069Z,236.25
2022-08-11T08:18:09.190Z,236.25
2022-08-11T08:19:08.051Z,236.25
2022-08-11T08:20:08.047Z,241.88
2022-08-11T08:21:08.041Z,241.88
2022-08-11T08:22:38.487Z,241.88
2022-08-11T08:23:08.005Z,241.88
2022-08-11T08:24:08.004Z,241.88
2022-08-11T08:25:07.996Z,241.88
2022-08-11T08:26:16.841Z,241.88
2022-08-11T08:27:07.969Z,241.88
2022-08-11T08:28:07.956Z,247.50
2022-08-11T08:29:07.948Z,247.50
2022-08-11T08:30:07.965Z,247.50
2022-08-11T08:31:07.941Z,253.13
2022-08-11T08:32:07.924Z,247.50
2022-08-11T08:33:07.916Z,247.50
2022-08-11T08:34:07.916Z,253.13
2022-08-11T08:35:07.895Z,247.50
2022-08-11T08:36:07.884Z,253.13
2022-08-11T08:37:16.207Z,253.13
2022-08-11T08:38:07.866Z,253.13
2022-08-11T08:39:07.852Z,253.13
2022-08-11T08:40:07.889Z,253.13
2022-08-11T08:41:07.850Z,253.13
2022-08-11T08:42:07.828Z,253.13
2022-08-11T08:43:07.820Z,253.13
2022-08-11T08:44:36.724Z,258.75
2022-08-11T08:45:07.799Z,258.75
2022-08-11T08:46:07.795Z,258.75
2022-08-11T08:47:07.781Z,258.75
2022-08-11T08:48:07.774Z,258.75
2022-08-11T08:49:07.764Z,258.75
2022-08-11T08:50:07.754Z,258.75
2022-08-11T08:51:08.156Z,258.75
2022-08-11T08:52:26.328Z,264.38
2022-08-11T08:53:07.738Z,264.38
2022-08-11T08:54:07.722Z,264.38
2022-08-11T08:55:07.709Z,264.38
2022-08-11T08:56:07.705Z,264.38
2022-08-11T08:57:07.693Z,264.38
2022-08-11T08:58:07.680Z,264.38
2022-08-11T08:59:07.677Z,264.38
2022-08-11T09:00:07.668Z,264.38
2022-08-11T09:01:07.697Z,264.38
2022-08-11T09:02:07.648Z,264.38
2022-08-11T09:03:36.103Z,264.38
2022-08-11T09:04:11.739Z,264.38
2022-08-11T09:05:07.619Z,270.00
2022-08-11T09:06:07.609Z,264.38
2022-08-11T09:07:07.602Z,270.00
2022-08-11T09:08:07.593Z,270.00
2022-08-11T09:09:07.582Z,270.00
2022-08-11T09:10:07.586Z,275.63
2022-08-11T09:11:13.276Z,275.63
2022-08-11T09:12:07.557Z,275.63
2022-08-11T09:13:07.545Z,281.25
2022-08-11T09:14:11.511Z,281.25
2022-08-11T09:15:07.534Z,281.25
2022-08-11T09:16:07.520Z,286.88
2022-08-11T09:17:07.505Z,286.88
2022-08-11T09:18:07.504Z,286.88
2022-08-11T09:19:07.490Z,286.88
2022-08-11T09:20:07.485Z,292.50
2022-08-11T09:21:07.494Z,292.50
2022-08-11T09:22:07.466Z,292.50
2022-08-11T09:24:11.458Z,292.50
2022-08-11T09:25:07.453Z,298.13
2022-08-11T09:26:07.429Z,298.13
2022-08-11T09:27:07.423Z,303.75
2022-08-11T09:28:07.410Z,303.75
2022-08-11T09:29:07.396Z,303.75
2022-08-11T09:30:07.394Z,309.38
2022-08-11T09:31:07.387Z,309.38
2022-08-11T09:32:07.453Z,309.38
2022-08-11T09:33:07.359Z,320.63
2022-08-11T09:34:07.357Z,326.25
2022-08-11T09:35:07.348Z,326.25
2022-08-11T09:36:07.342Z,331.88
2022-08-11T09:37:07.335Z,337.50
2022-08-11T09:38:07.315Z,343.13
2022-08-11T09:39:07.422Z,354.38
2022-08-11T09:40:07.304Z,354.38
2022-08-11T09:41:07.296Z,354.38
2022-08-11T09:42:07.278Z,365.63
2022-08-11T09:43:07.275Z,382.50
2022-08-11T09:44:07.283Z,399.38
2022-08-11T09:45:07.255Z,405.00
2022-08-11T09:46:07.246Z,405.00
2022-08-11T09:47:07.237Z,405.00
2022-08-11T09:48:07.419Z,399.38
2022-08-11T09:49:07.260Z,388.13
2022-08-11T09:50:07.222Z,393.75
2022-08-11T09:51:07.236Z,399.38
2022-08-11T09:52:07.207Z,416.25
2022-08-11T09:53:38.189Z,421.88
2022-08-11T09:54:07.192Z,433.13
2022-08-11T09:55:07.170Z,433.13
2022-08-11T09:56:07.159Z,427.50
2022-08-11T09:57:07.160Z,433.13
2022-08-11T09:58:07.142Z,438.75
2022-08-11T09:59:07.184Z,438.75
2022-08-11T10:00:12.672Z,455.63
2022-08-11T10:01:07.206Z,461.25
2022-08-11T10:02:07.107Z,455.63
2022-08-11T10:03:07.101Z,450.00
2022-08-11T10:04:07.092Z,455.63
2022-08-11T10:05:07.090Z,455.63
2022-08-11T10:06:08.189Z,455.63
2022-08-11T10:07:07.083Z,461.25
2022-08-11T10:08:07.063Z,478.13
2022-08-11T10:09:07.055Z,511.88
2022-08-11T10:10:07.048Z,551.25
2022-08-11T10:11:07.067Z,573.75
2022-08-11T10:12:07.029Z,590.63
2022-08-11T10:14:03.745Z,573.75
2022-08-11T10:14:33.295Z,573.75
2022-08-11T10:15:07.023Z,601.88
2022-08-11T10:16:15.160Z,613.13
2022-08-11T10:17:06.994Z,613.13
2022-08-11T10:18:06.985Z,613.13
2022-08-11T10:19:06.997Z,635.63
2022-08-11T10:20:06.969Z,646.88
2022-08-11T10:21:06.969Z,675.00
2022-08-11T10:22:06.956Z,691.88
2022-08-11T10:23:06.956Z,708.75
2022-08-11T10:24:06.941Z,742.50
2022-08-11T10:25:06.934Z,787.50
2022-08-11T10:26:06.946Z,826.88
2022-08-11T10:27:06.914Z,883.13
2022-08-11T10:28:32.686Z,922.50
2022-08-11T10:29:13.203Z,939.38
2022-08-11T10:30:06.894Z,1029.38
2022-08-11T10:31:06.937Z,1074.38
2022-08-11T10:32:06.902Z,1125.00
2022-08-11T10:33:08.216Z,1192.50
2022-08-11T10:34:06.872Z,1237.50
2022-08-11T10:35:06.868Z,1344.38
2022-08-11T10:36:16.885Z,1451.25
2022-08-11T10:37:06.850Z,1518.75
2022-08-11T10:38:15.913Z,1603.13
2022-08-11T10:39:06.838Z,1710.00
2022-08-11T10:40:06.846Z,1777.50
2022-08-11T10:41:06.830Z,1833.75
2022-08-11T10:42:12.168Z,1901.25
2022-08-11T10:43:06.812Z,1923.75
2022-08-11T10:44:06.802Z,1940.63
2022-08-11T10:45:06.801Z,1996.88
2022-08-11T10:46:06.793Z,2008.13
2022-08-11T10:47:06.790Z,2019.38
2022-08-11T10:48:06.790Z,2047.50
2022-08-11T10:49:06.776Z,2081.25
2022-08-11T10:50:06.773Z,2103.75
2022-08-11T10:51:06.765Z,2182.50
2022-08-11T10:52:06.760Z,2210.63
2022-08-11T10:53:06.755Z,2148.75
2022-08-11T10:54:06.749Z,2154.38
2022-08-11T10:55:06.740Z,2205.00
2022-08-11T10:56:06.738Z,2216.25
2022-08-11T10:57:06.731Z,2188.13
2022-08-11T10:58:06.728Z,2165.63
2022-08-11T10:59:06.719Z,2182.50
2022-08-11T11:00:06.719Z,2176.88
2022-08-11T11:01:06.762Z,2193.75
2022-08-11T11:02:06.710Z,2193.75
2022-08-11T11:03:23.772Z,2199.38
2022-08-11T11:04:06.698Z,2199.38
2022-08-11T11:05:06.695Z,2216.25
2022-08-11T11:06:28.531Z,2227.50
2022-08-11T11:07:06.681Z,2255.63
2022-08-11T11:08:06.683Z,2278.13
2022-08-11T11:09:06.678Z,2272.50
2022-08-11T11:10:06.684Z,2300.63
2022-08-11T11:11:06.664Z,2311.88
2022-08-11T11:12:06.669Z,2328.75
2022-08-11T11:13:06.657Z,2345.63
2022-08-11T11:14:06.655Z,2340.00
2022-08-11T11:15:06.731Z,2345.63
2022-08-11T11:16:06.658Z,2379.38
2022-08-11T11:17:06.645Z,2407.50
2022-08-11T11:18:06.642Z,2407.50
2022-08-11T11:19:06.658Z,2413.13
2022-08-11T11:20:06.631Z,2418.75
2022-08-11T11:21:06.628Z,2486.25
2022-08-11T11:22:06.629Z,2508.75
2022-08-11T11:23:06.621Z,2520.00
2022-08-11T11:24:06.627Z,2548.13
2022-08-11T11:25:06.611Z,2587.50
2022-08-11T11:26:06.901Z,2621.25
2022-08-11T11:27:06.612Z,2643.75
2022-08-11T11:28:06.602Z,2694.38
2022-08-11T11:29:06.603Z,2711.25
2022-08-11T11:30:06.604Z,2733.75
2022-08-11T11:31:06.596Z,2767.50
2022-08-11T11:32:06.591Z,2801.25
2022-08-11T11:33:06.593Z,2829.38
2022-08-11T11:34:12.808Z,2840.63
2022-08-11T11:35:06.586Z,2863.13
2022-08-11T11:36:06.585Z,2908.13
2022-08-11T11:37:06.576Z,2941.88
2022-08-11T11:38:09.342Z,2975.63
2022-08-11T11:39:06.583Z,3015.00
2022-08-11T11:40:06.568Z,3031.88
2022-08-11T11:41:06.569Z,3031.88
2022-08-11T11:42:06.570Z,3043.13
2022-08-11T11:43:06.573Z,3110.63
2022-08-11T11:44:06.566Z,3133.13
2022-08-11T11:45:06.581Z,3161.25
2022-08-11T11:46:06.570Z,3189.38
2022-08-11T11:47:06.563Z,3234.38
2022-08-11T11:48:06.559Z,3228.75
2022-08-11T11:49:06.635Z,3256.88
2022-08-11T11:50:06.554Z,3279.38
2022-08-11T11:51:06.550Z,3307.50
2022-08-11T11:52:06.550Z,3341.25
2022-08-11T11:53:06.554Z,3341.25
2022-08-11T11:54:06.548Z,3358.13
2022-08-11T11:55:06.549Z,3358.13
2022-08-11T11:56:06.549Z,3380.63
2022-08-11T11:57:06.554Z,3414.38
2022-08-11T11:58:06.561Z,3448.13
2022-08-11T11:59:06.539Z,3470.63
2022-08-11T12:00:06.550Z,3487.50
2022-08-11T12:01:06.537Z,3470.63
2022-08-11T12:02:11.812Z,3476.25
2022-08-11T12:03:06.687Z,3504.38
2022-08-11T12:04:06.536Z,3521.25
2022-08-11T12:05:06.536Z,3555.00
2022-08-11T12:06:06.535Z,3526.88
2022-08-11T12:07:06.534Z,3515.63
2022-08-11T12:08:12.463Z,3577.50
2022-08-11T12:09:06.525Z,3577.50
2022-08-11T12:10:06.532Z,3571.88
2022-08-11T12:11:06.524Z,3566.25
2022-08-11T12:12:06.525Z,3605.63
2022-08-11T12:13:06.564Z,3650.63
2022-08-11T12:14:10.747Z,3633.75
2022-08-11T12:15:06.535Z,3605.63
2022-08-11T12:16:34.633Z,3639.38
2022-08-11T12:17:06.518Z,3684.38
2022-08-11T12:18:06.521Z,3633.75
2022-08-11T12:19:06.525Z,3645.00
2022-08-11T12:20:06.516Z,3633.75
2022-08-11T12:21:06.522Z,3611.25
2022-08-11T12:22:06.522Z,3628.13
2022-08-11T12:23:06.519Z,3628.13
2022-08-11T12:24:06.518Z,3622.50
2022-08-11T12:25:06.514Z,3628.13
2022-08-11T12:26:27.706Z,3628.13
2022-08-11T12:27:15.705Z,3588.75
2022-08-11T12:28:06.512Z,3622.50
2022-08-11T12:29:06.506Z,3650.63
2022-08-11T12:30:06.516Z,3622.50
2022-08-11T12:31:06.509Z,3633.75
2022-08-11T12:32:06.506Z,3616.88
2022-08-11T12:33:06.543Z,3577.50
2022-08-11T12:34:06.506Z,3639.38
2022-08-11T12:35:06.510Z,3661.88
2022-08-11T12:36:06.508Z,3684.38
2022-08-11T12:37:06.506Z,3690.00
2022-08-11T12:38:09.942Z,3667.50
2022-08-11T12:39:23.167Z,3656.25
2022-08-11T12:40:16.286Z,3571.88
2022-08-11T12:41:21.933Z,3594.38
2022-08-11T12:42:06.578Z,3566.25
2022-08-11T12:43:08.296Z,3571.88
2022-08-11T12:44:06.507Z,3566.25